Ashland, Maine
Current Conditions -  °F | °C
As of 9:55 PM on Friday 21 Nov 2014 (Local Time) from KPQI Reporting Station
Clear Clear  
Wind Chill:   Ceiling: Unl
Heat Index: 16°   Visibility: 10mi
Dew Point:   Wind: 12mph
Humidity: 62%   Direction: 290°WNW
Pressure: 30.12"   Gusts: 20mph
Location:  46.63°N, 68.41°W
Report Text: KPQI 220255Z AUTO 29010G17KT 10SM CLR M09/M15 A3012 RMK AO1 52020
Loading
Personal Weather Stations






























Interactive Weather Map New forecast layout! Learn more

10-Day Weather Forecast

Advertisements
Track Severe Weather on mobile